createdAt,value
2018-09-13T00:01:18.863Z,99.90
2018-09-13T00:03:49.355Z,99.90
2018-09-13T00:06:18.775Z,99.90
2018-09-13T00:08:47.915Z,99.90
2018-09-13T00:11:17.029Z,99.90
2018-09-13T00:13:46.217Z,99.90
2018-09-13T00:16:15.389Z,99.90
2018-09-13T00:18:44.559Z,99.90
2018-09-13T00:21:14.805Z,99.90
2018-09-13T00:23:43.923Z,99.90
2018-09-13T00:26:13.075Z,99.90
2018-09-13T00:28:42.237Z,99.90
2018-09-13T00:31:11.362Z,99.90
2018-09-13T00:33:40.586Z,99.90
2018-09-13T00:36:09.718Z,99.90
2018-09-13T00:38:38.954Z,99.90
2018-09-13T00:41:08.117Z,99.90
2018-09-13T00:43:37.219Z,99.90
2018-09-13T00:46:06.347Z,99.90
2018-09-13T00:48:36.269Z,99.90
2018-09-13T00:51:05.441Z,99.90
2018-09-13T00:53:34.586Z,99.90
2018-09-13T00:56:03.689Z,99.90
2018-09-13T00:58:32.808Z,99.90
2018-09-13T01:01:01.906Z,99.90
2018-09-13T01:03:30.978Z,99.90
2018-09-13T01:06:00.119Z,99.90
2018-09-13T01:08:29.309Z,99.90
2018-09-13T01:10:58.411Z,99.90
2018-09-13T01:13:27.534Z,99.90
2018-09-13T01:15:56.629Z,99.90
2018-09-13T01:18:25.709Z,99.90
2018-09-13T01:20:54.784Z,99.90
2018-09-13T01:23:23.909Z,99.90
2018-09-13T01:25:52.984Z,99.90
2018-09-13T01:28:22.102Z,99.90
2018-09-13T01:30:51.216Z,99.90
2018-09-13T01:33:20.341Z,99.90
2018-09-13T01:35:49.453Z,99.90
2018-09-13T01:38:18.574Z,99.90
2018-09-13T01:40:47.674Z,99.90
2018-09-13T01:43:16.790Z,99.90
2018-09-13T01:45:45.877Z,99.90
2018-09-13T01:48:15.001Z,99.90
2018-09-13T01:50:44.138Z,99.90
2018-09-13T01:53:13.260Z,99.90
2018-09-13T01:55:42.459Z,99.90
2018-09-13T01:58:11.675Z,99.90
2018-09-13T02:00:40.761Z,99.90
2018-09-13T02:03:09.917Z,99.90
2018-09-13T02:05:39.021Z,99.90
2018-09-13T02:08:08.130Z,99.90
2018-09-13T02:10:37.227Z,99.90
2018-09-13T02:13:06.683Z,99.90
2018-09-13T02:15:35.811Z,99.90
2018-09-13T02:18:04.978Z,99.90
2018-09-13T02:20:34.070Z,99.90
2018-09-13T02:23:03.191Z,99.90
2018-09-13T02:25:32.272Z,99.90
2018-09-13T02:28:01.611Z,99.90
2018-09-13T02:30:30.680Z,99.90
2018-09-13T02:32:59.800Z,99.90
2018-09-13T02:35:28.879Z,99.90
2018-09-13T02:37:58.018Z,99.90
2018-09-13T02:40:27.215Z,99.90
2018-09-13T02:42:57.134Z,99.90
2018-09-13T02:45:26.217Z,99.90
2018-09-13T02:47:55.337Z,99.90
2018-09-13T02:50:24.422Z,99.90
2018-09-13T02:52:53.550Z,99.90
2018-09-13T02:55:22.641Z,99.90
2018-09-13T02:57:51.830Z,99.90
2018-09-13T03:00:21.462Z,99.90
2018-09-13T03:02:50.529Z,99.90
2018-09-13T03:05:19.674Z,99.90
2018-09-13T03:07:48.812Z,99.90
2018-09-13T03:10:17.990Z,99.90
2018-09-13T03:12:47.086Z,99.90
2018-09-13T03:15:16.235Z,99.90
2018-09-13T03:17:45.414Z,99.90
2018-09-13T03:20:14.653Z,99.90
2018-09-13T03:22:43.726Z,99.90
2018-09-13T03:25:12.861Z,99.90
2018-09-13T03:27:42.001Z,99.90
2018-09-13T03:30:11.242Z,99.90
2018-09-13T03:32:40.338Z,99.90
2018-09-13T03:35:09.505Z,99.90
2018-09-13T03:37:38.639Z,99.90
2018-09-13T03:40:07.774Z,99.90
2018-09-13T03:42:36.851Z,99.90
2018-09-13T03:45:05.986Z,99.90
2018-09-13T03:47:35.206Z,99.90
2018-09-13T03:50:04.338Z,99.90
2018-09-13T03:52:33.503Z,99.90
2018-09-13T03:55:02.630Z,99.90
2018-09-13T03:57:32.539Z,99.90
2018-09-13T04:00:01.709Z,99.90
2018-09-13T04:02:30.800Z,99.90
2018-09-13T04:04:59.941Z,99.90
2018-09-13T04:07:29.037Z,99.90
2018-09-13T04:09:58.148Z,99.90
2018-09-13T04:12:27.249Z,99.90
2018-09-13T04:14:56.361Z,99.90
2018-09-13T04:17:25.530Z,99.90
2018-09-13T04:19:54.633Z,99.90
2018-09-13T04:22:23.709Z,99.90
2018-09-13T04:24:52.810Z,99.90
2018-09-13T04:27:21.977Z,99.90
2018-09-13T04:29:51.077Z,99.90
2018-09-13T04:32:20.157Z,99.90
2018-09-13T04:34:49.274Z,99.90
2018-09-13T04:37:18.378Z,99.90
2018-09-13T04:39:47.449Z,99.90
2018-09-13T04:42:16.565Z,99.90
2018-09-13T04:44:45.666Z,99.90
2018-09-13T04:47:14.797Z,99.90
2018-09-13T04:49:43.913Z,99.90
2018-09-13T04:52:13.073Z,99.90
2018-09-13T04:54:42.189Z,99.90
2018-09-13T04:57:11.397Z,99.90
2018-09-13T04:59:40.500Z,99.90
2018-09-13T05:02:09.613Z,99.90
2018-09-13T05:04:38.709Z,99.90
2018-09-13T05:07:08.025Z,99.90
2018-09-13T05:09:37.097Z,99.90
2018-09-13T05:12:06.437Z,99.90
2018-09-13T05:14:35.540Z,99.90
2018-09-13T05:17:04.643Z,99.90
2018-09-13T05:19:33.964Z,99.90
2018-09-13T05:22:03.102Z,99.90
2018-09-13T05:24:32.225Z,99.90
2018-09-13T05:27:01.365Z,99.90
2018-09-13T05:29:30.473Z,99.90
2018-09-13T05:31:59.611Z,99.90
2018-09-13T05:34:28.691Z,99.90
2018-09-13T05:36:57.811Z,99.90
2018-09-13T05:39:27.044Z,99.90
2018-09-13T05:41:56.142Z,99.90
2018-09-13T05:44:25.264Z,99.90
2018-09-13T05:46:54.389Z,99.90
2018-09-13T05:49:23.518Z,99.90
2018-09-13T05:51:52.793Z,99.90
2018-09-13T05:54:21.890Z,99.90
2018-09-13T05:56:51.024Z,99.90
2018-09-13T05:59:20.101Z,99.90
2018-09-13T06:01:49.216Z,99.90
2018-09-13T06:04:18.321Z,99.90
2018-09-13T06:06:47.405Z,99.90
2018-09-13T06:09:17.245Z,99.90
2018-09-13T06:11:46.384Z,99.90
2018-09-13T06:14:15.742Z,99.90
2018-09-13T06:16:44.929Z,99.90
2018-09-13T06:19:14.045Z,99.90
2018-09-13T06:21:43.143Z,99.90
2018-09-13T06:24:12.273Z,99.90
2018-09-13T06:26:42.048Z,99.90
2018-09-13T06:29:11.198Z,99.90
2018-09-13T06:31:40.280Z,99.90
2018-09-13T06:34:09.384Z,99.90
2018-09-13T06:36:38.475Z,99.90
2018-09-13T06:39:09.113Z,99.90
2018-09-13T06:41:39.572Z,99.90
2018-09-13T06:44:09.664Z,99.90
2018-09-13T06:46:40.285Z,99.90
2018-09-13T06:49:09.385Z,99.90
2018-09-13T06:51:38.883Z,99.90
2018-09-13T06:54:08.083Z,99.90
2018-09-13T06:56:37.461Z,99.90
2018-09-13T06:59:06.604Z,99.90
2018-09-13T07:01:36.694Z,99.90
2018-09-13T07:04:05.886Z,99.90
2018-09-13T07:06:35.342Z,99.90
2018-09-13T07:09:07.141Z,99.90
2018-09-13T07:11:36.269Z,99.90
2018-09-13T07:14:05.382Z,99.90
2018-09-13T07:16:35.552Z,99.90
2018-09-13T07:19:04.769Z,99.90
2018-09-13T07:21:34.226Z,99.90
2018-09-13T07:24:04.195Z,99.90
2018-09-13T07:26:33.289Z,99.90
2018-09-13T07:29:02.566Z,99.90
2018-09-13T07:31:32.379Z,99.90
2018-09-13T07:34:02.206Z,99.90
2018-09-13T07:36:31.394Z,99.90
2018-09-13T07:39:01.057Z,99.90
2018-09-13T07:41:30.166Z,99.90
2018-09-13T07:43:59.390Z,99.90
2018-09-13T07:46:28.519Z,99.90
2018-09-13T07:48:57.644Z,99.90
2018-09-13T07:51:26.988Z,99.90
2018-09-13T07:53:56.088Z,99.90
2018-09-13T07:56:25.230Z,99.90
2018-09-13T07:58:54.361Z,99.90
2018-09-13T08:01:23.466Z,99.90
2018-09-13T08:03:52.549Z,99.90
2018-09-13T08:06:21.879Z,99.90
2018-09-13T08:08:50.965Z,99.90
2018-09-13T08:11:21.059Z,99.90
2018-09-13T08:13:50.154Z,99.90
2018-09-13T08:16:19.321Z,99.90
2018-09-13T08:18:48.446Z,99.90
2018-09-13T08:21:17.623Z,99.90
2018-09-13T08:23:46.690Z,99.90
2018-09-13T08:26:16.054Z,99.90
2018-09-13T08:28:45.232Z,99.90
2018-09-13T08:31:15.328Z,99.90
2018-09-13T08:33:44.587Z,99.90
2018-09-13T08:36:14.033Z,99.50
2018-09-13T08:38:43.249Z,99.50
2018-09-13T08:41:13.300Z,99.90
2018-09-13T08:43:42.745Z,99.90
2018-09-13T08:46:12.185Z,98.50
2018-09-13T08:48:41.931Z,95.90
2018-09-13T08:51:11.006Z,97.60
2018-09-13T08:53:41.090Z,97.70
2018-09-13T08:56:10.255Z,98.20
2018-09-13T08:58:39.505Z,97.10
2018-09-13T09:01:08.621Z,96.40
2018-09-13T09:03:37.697Z,97.10
2018-09-13T09:06:07.624Z,96.50
2018-09-13T09:08:36.858Z,96.60
2018-09-13T09:11:06.450Z,96.00
2018-09-13T09:13:35.580Z,95.00
2018-09-13T09:16:04.693Z,93.60
2018-09-13T09:18:34.343Z,96.70
2018-09-13T09:21:03.578Z,96.20
2018-09-13T09:23:32.759Z,97.60
2018-09-13T09:26:01.830Z,97.20
2018-09-13T09:28:30.915Z,95.80
2018-09-13T09:31:00.130Z,95.60
2018-09-13T09:33:29.255Z,94.70
2018-09-13T09:35:58.955Z,92.80
2018-09-13T09:38:29.066Z,93.20
2018-09-13T09:40:59.255Z,90.40
2018-09-13T09:43:28.602Z,88.50
2018-09-13T09:45:57.890Z,88.60
2018-09-13T09:48:27.611Z,89.90
2018-09-13T09:50:56.828Z,87.10
2018-09-13T09:53:25.890Z,85.80
2018-09-13T09:55:55.083Z,84.20
2018-09-13T09:58:24.145Z,80.90
2018-09-13T10:00:58.793Z,79.20
2018-09-13T10:03:27.897Z,80.50
2018-09-13T10:05:57.017Z,84.60
2018-09-13T10:08:26.103Z,83.60
2018-09-13T10:10:55.294Z,80.50
2018-09-13T10:13:24.682Z,77.60
2018-09-13T10:15:59.255Z,80.00
2018-09-13T10:18:34.119Z,76.50
2018-09-13T10:21:08.770Z,74.40
2018-09-13T10:23:43.990Z,76.20
2018-09-13T10:27:22.119Z,74.00
2018-09-13T10:29:57.752Z,72.90
2018-09-13T10:32:32.224Z,70.80
2018-09-13T10:35:06.597Z,72.40
2018-09-13T10:37:41.995Z,69.50
2018-09-13T10:40:18.546Z,68.70
2018-09-13T10:42:53.069Z,68.40
2018-09-13T10:45:27.634Z,67.40
2018-09-13T10:48:02.203Z,70.30
2018-09-13T10:50:35.619Z,69.30
2018-09-13T10:53:09.841Z,67.40
2018-09-13T10:55:39.009Z,67.30
2018-09-13T10:58:08.415Z,66.80
2018-09-13T11:00:37.602Z,63.30
2018-09-13T11:03:08.128Z,66.60
2018-09-13T11:05:37.768Z,65.80
2018-09-13T11:08:07.857Z,63.70
2018-09-13T11:10:38.123Z,61.80
2018-09-13T11:13:09.962Z,60.00
2018-09-13T11:15:39.871Z,62.60
2018-09-13T11:18:09.609Z,60.00
2018-09-13T11:20:39.657Z,59.90
2018-09-13T11:23:09.533Z,59.30
2018-09-13T11:25:40.268Z,59.50
2018-09-13T11:28:10.079Z,59.20
2018-09-13T11:30:40.312Z,59.20
2018-09-13T11:33:09.842Z,60.70
2018-09-13T11:35:39.531Z,62.90
2018-09-13T11:38:09.436Z,63.20
2018-09-13T11:40:39.588Z,63.50
2018-09-13T11:43:08.804Z,62.70
2018-09-13T11:45:38.872Z,64.50
2018-09-13T11:48:10.987Z,60.20
2018-09-13T11:50:40.523Z,58.60
2018-09-13T11:53:09.627Z,57.70
2018-09-13T11:55:43.644Z,56.20
2018-09-13T11:58:14.180Z,57.70
2018-09-13T12:00:43.874Z,57.70
2018-09-13T12:03:14.029Z,57.10
2018-09-13T12:05:43.593Z,57.40
2018-09-13T12:08:12.703Z,59.50
2018-09-13T12:10:41.783Z,59.40
2018-09-13T12:13:10.942Z,59.30
2018-09-13T12:15:40.087Z,57.20
2018-09-13T12:18:09.220Z,56.30
2018-09-13T12:20:38.329Z,58.10
2018-09-13T12:23:07.409Z,56.10
2018-09-13T12:25:36.577Z,53.80
2018-09-13T12:28:06.133Z,54.40
2018-09-13T12:30:35.257Z,55.40
2018-09-13T12:33:04.378Z,54.50
2018-09-13T12:35:33.481Z,55.50
2018-09-13T12:38:02.718Z,55.60
2018-09-13T12:40:31.845Z,55.10
2018-09-13T12:43:00.941Z,54.50
2018-09-13T12:45:30.057Z,56.00
2018-09-13T12:47:59.171Z,55.30
2018-09-13T12:50:28.313Z,56.90
2018-09-13T12:52:58.397Z,57.60
2018-09-13T12:55:31.723Z,55.70
2018-09-13T12:58:01.030Z,54.20
2018-09-13T13:00:30.160Z,54.30
2018-09-13T13:02:59.261Z,54.60
2018-09-13T13:05:28.382Z,54.60
2018-09-13T13:07:57.727Z,56.60
2018-09-13T13:10:26.857Z,55.80
2018-09-13T13:12:56.560Z,55.40
2018-09-13T13:15:26.621Z,54.60
2018-09-13T13:17:55.763Z,55.10
2018-09-13T13:20:25.885Z,55.70
2018-09-13T13:22:57.625Z,55.70
2018-09-13T13:25:26.766Z,52.00
2018-09-13T13:27:56.005Z,51.50
2018-09-13T13:30:25.635Z,52.50
2018-09-13T13:32:54.798Z,52.70
2018-09-13T13:35:23.917Z,53.60
2018-09-13T13:37:53.045Z,54.50
2018-09-13T13:40:22.185Z,55.90
2018-09-13T13:42:52.216Z,58.50
2018-09-13T13:45:22.065Z,60.80
2018-09-13T13:47:51.197Z,64.80
2018-09-13T13:50:20.309Z,65.80
2018-09-13T13:52:49.386Z,69.60
2018-09-13T13:55:18.632Z,75.80
2018-09-13T13:57:47.701Z,77.40
2018-09-13T14:00:16.794Z,72.00
2018-09-13T14:02:45.878Z,66.80
2018-09-13T14:05:14.982Z,66.70
2018-09-13T14:07:44.088Z,68.00
2018-09-13T14:10:13.280Z,65.80
2018-09-13T14:12:42.313Z,65.40
2018-09-13T14:15:11.465Z,61.70
2018-09-13T14:17:40.533Z,59.80
2018-09-13T14:20:09.629Z,58.30
2018-09-13T14:22:38.732Z,59.90
2018-09-13T14:25:07.836Z,58.40
2018-09-13T14:27:36.944Z,57.90
2018-09-13T14:30:06.130Z,58.20
2018-09-13T14:32:35.226Z,58.20
2018-09-13T14:35:04.421Z,59.80
2018-09-13T14:37:33.597Z,62.60
2018-09-13T14:40:02.744Z,69.30
2018-09-13T14:42:32.249Z,65.70
2018-09-13T14:45:01.336Z,66.80
2018-09-13T14:47:30.571Z,68.10
2018-09-13T14:49:59.670Z,69.10
2018-09-13T14:52:28.806Z,70.90
2018-09-13T14:54:57.998Z,72.70
2018-09-13T14:57:33.397Z,72.00
2018-09-13T15:00:02.446Z,74.60
2018-09-13T15:02:32.192Z,77.00
2018-09-13T15:05:01.297Z,77.90
2018-09-13T15:07:30.861Z,78.00
2018-09-13T15:09:59.982Z,79.00
2018-09-13T15:12:29.433Z,80.50
2018-09-13T15:14:58.501Z,80.80
2018-09-13T15:17:27.666Z,81.60
2018-09-13T15:19:56.747Z,84.80
2018-09-13T15:22:26.558Z,83.80
2018-09-13T15:24:55.656Z,85.80
2018-09-13T15:27:25.133Z,87.30
2018-09-13T15:29:54.236Z,87.70
2018-09-13T15:32:23.328Z,88.40
2018-09-13T15:34:52.424Z,89.90
2018-09-13T15:37:22.346Z,89.00
2018-09-13T15:39:51.528Z,90.90
2018-09-13T15:42:20.618Z,91.00
2018-09-13T15:44:49.745Z,90.70
2018-09-13T15:47:19.343Z,94.30
2018-09-13T15:49:48.442Z,96.60
2018-09-13T15:52:17.550Z,99.90
2018-09-13T15:54:46.662Z,99.90
2018-09-13T15:57:15.822Z,99.90
2018-09-13T15:59:44.917Z,99.90
2018-09-13T16:02:14.308Z,99.90
2018-09-13T16:04:43.593Z,99.90
2018-09-13T16:07:12.678Z,99.90
2018-09-13T16:09:41.787Z,99.90
2018-09-13T16:12:10.873Z,99.90
2018-09-13T16:14:39.966Z,99.90
2018-09-13T16:17:09.141Z,99.90
2018-09-13T16:19:38.355Z,99.90
2018-09-13T16:22:07.759Z,99.90
2018-09-13T16:24:36.882Z,99.90
2018-09-13T16:27:05.977Z,99.90
2018-09-13T16:29:35.150Z,99.90
2018-09-13T16:32:04.258Z,99.90
2018-09-13T16:34:33.878Z,99.90
2018-09-13T16:37:06.722Z,99.90
2018-09-13T16:39:41.245Z,99.90
2018-09-13T16:42:15.886Z,99.90
2018-09-13T16:44:52.538Z,99.90
2018-09-13T16:47:33.984Z,99.90
2018-09-13T16:50:03.641Z,99.90
2018-09-13T16:52:33.521Z,99.90
2018-09-13T16:55:02.822Z,99.90
2018-09-13T16:57:31.985Z,99.90
2018-09-13T17:00:01.097Z,99.90
2018-09-13T17:02:30.192Z,99.90
2018-09-13T17:05:00.314Z,99.90
2018-09-13T17:07:29.757Z,99.90
2018-09-13T17:09:58.876Z,99.90
2018-09-13T17:12:27.973Z,99.90
2018-09-13T17:14:57.158Z,99.90
2018-09-13T17:17:26.256Z,99.90
2018-09-13T17:19:55.531Z,99.90
2018-09-13T17:22:26.335Z,99.90
2018-09-13T17:24:55.795Z,99.90
2018-09-13T17:30:22.012Z,99.90
2018-09-13T17:32:51.066Z,99.90
2018-09-13T17:35:20.193Z,99.90
2018-09-13T17:37:49.762Z,99.90
2018-09-13T17:40:18.898Z,99.90
2018-09-13T17:42:47.956Z,99.90
2018-09-13T17:45:17.048Z,99.90
2018-09-13T17:47:46.239Z,99.90
2018-09-13T17:50:16.545Z,99.90
2018-09-13T17:52:47.252Z,99.90
2018-09-13T17:55:16.755Z,99.90
2018-09-13T17:57:45.867Z,99.90
2018-09-13T18:00:15.623Z,99.90
2018-09-13T18:02:44.707Z,99.90
2018-09-13T18:05:13.799Z,99.90
2018-09-13T18:07:43.522Z,99.90
2018-09-13T18:10:12.615Z,99.90
2018-09-13T18:12:41.722Z,99.90
2018-09-13T18:15:11.941Z,99.90
2018-09-13T18:17:41.132Z,99.90
2018-09-13T18:20:10.249Z,99.90
2018-09-13T18:22:39.297Z,99.90
2018-09-13T18:25:08.354Z,99.90
2018-09-13T18:27:37.533Z,99.90
2018-09-13T18:30:07.016Z,99.90
2018-09-13T18:32:36.219Z,99.90
2018-09-13T18:35:05.342Z,99.90
2018-09-13T18:37:34.566Z,99.90
2018-09-13T18:40:04.614Z,99.90
2018-09-13T18:42:33.702Z,99.90
2018-09-13T18:45:02.799Z,99.90
2018-09-13T18:47:32.025Z,99.90
2018-09-13T18:50:02.133Z,99.90
2018-09-13T18:52:31.298Z,99.90
2018-09-13T18:55:00.346Z,99.90
2018-09-13T18:57:29.430Z,99.90
2018-09-13T18:59:58.519Z,99.90
2018-09-13T19:02:27.603Z,99.90
2018-09-13T19:04:56.682Z,99.90
2018-09-13T19:07:25.802Z,99.90
2018-09-13T19:09:54.886Z,99.90
2018-09-13T19:12:23.987Z,99.90
2018-09-13T19:14:53.056Z,99.90
2018-09-13T19:17:22.199Z,99.90
2018-09-13T19:19:51.806Z,99.90
2018-09-13T19:22:21.186Z,99.90
2018-09-13T19:24:50.279Z,99.90
2018-09-13T19:27:19.401Z,99.90
2018-09-13T19:29:48.500Z,99.90
2018-09-13T19:32:17.570Z,99.90
2018-09-13T19:34:46.666Z,99.90
2018-09-13T19:37:15.786Z,99.90
2018-09-13T19:39:44.889Z,99.90
2018-09-13T19:42:15.822Z,99.90
2018-09-13T19:44:44.938Z,99.90
2018-09-13T19:47:14.161Z,99.90
2018-09-13T19:49:43.267Z,99.90
2018-09-13T19:52:12.322Z,99.90
2018-09-13T19:54:41.407Z,99.90
2018-09-13T19:57:10.478Z,99.90
2018-09-13T19:59:39.595Z,99.90
2018-09-13T20:02:08.707Z,99.90
2018-09-13T20:04:37.861Z,99.90
2018-09-13T20:07:06.941Z,99.90
2018-09-13T20:09:36.160Z,99.90
2018-09-13T20:12:05.369Z,99.90
2018-09-13T20:14:34.495Z,99.90
2018-09-13T20:17:03.611Z,99.90
2018-09-13T20:19:32.746Z,99.90
2018-09-13T20:22:01.886Z,99.90
2018-09-13T20:24:31.089Z,99.90
2018-09-13T20:27:00.206Z,99.90
2018-09-13T20:29:29.355Z,99.90
2018-09-13T20:31:58.464Z,99.90
2018-09-13T20:34:27.613Z,99.90
2018-09-13T20:36:56.791Z,99.90
2018-09-13T20:39:25.956Z,99.90
2018-09-13T20:41:55.070Z,99.90
2018-09-13T20:44:24.196Z,99.90
2018-09-13T20:46:53.545Z,99.90
2018-09-13T20:49:22.659Z,99.90
2018-09-13T20:51:52.238Z,99.90
2018-09-13T20:54:21.373Z,99.90
2018-09-13T20:56:51.028Z,99.90
2018-09-13T20:59:20.149Z,99.90
2018-09-13T21:01:49.295Z,99.90
2018-09-13T21:04:18.439Z,99.90
2018-09-13T21:06:47.683Z,99.90
2018-09-13T21:09:16.798Z,99.90
2018-09-13T21:11:45.967Z,99.90
2018-09-13T21:14:15.110Z,99.90
2018-09-13T21:16:44.250Z,99.90
2018-09-13T21:19:13.383Z,99.90
2018-09-13T21:21:42.636Z,99.90
2018-09-13T21:24:11.826Z,99.90
2018-09-13T21:26:40.919Z,99.90
2018-09-13T21:29:10.026Z,99.90
2018-09-13T21:31:39.148Z,99.90
2018-09-13T21:34:08.243Z,99.90
2018-09-13T21:36:37.367Z,99.90
2018-09-13T21:39:09.104Z,99.90
2018-09-13T21:41:38.174Z,99.90
2018-09-13T21:44:07.271Z,99.90
2018-09-13T21:46:36.718Z,99.90
2018-09-13T21:49:05.830Z,99.90
2018-09-13T21:51:34.952Z,99.90
2018-09-13T21:54:04.027Z,99.90
2018-09-13T21:56:33.310Z,99.90
2018-09-13T21:59:02.383Z,99.90
2018-09-13T22:01:32.350Z,99.90
2018-09-13T22:04:01.904Z,99.90
2018-09-13T22:06:31.020Z,99.90
2018-09-13T22:09:00.142Z,99.90
2018-09-13T22:11:29.245Z,99.90
2018-09-13T22:13:58.299Z,99.90
2018-09-13T22:16:27.394Z,99.90
2018-09-13T22:18:56.487Z,99.90
2018-09-13T22:21:25.679Z,99.90
2018-09-13T22:23:54.722Z,99.90
2018-09-13T22:26:23.850Z,99.90
2018-09-13T22:28:52.931Z,99.90
2018-09-13T22:31:22.067Z,99.90
2018-09-13T22:33:51.141Z,99.90
2018-09-13T22:36:20.327Z,99.90
2018-09-13T22:38:49.895Z,99.90
2018-09-13T22:41:19.058Z,99.90
2018-09-13T22:43:52.246Z,99.90
2018-09-13T22:46:22.982Z,99.90
2018-09-13T22:48:52.097Z,99.90
2018-09-13T22:51:21.205Z,99.90
2018-09-13T22:53:50.287Z,99.90
2018-09-13T22:56:19.382Z,99.90
2018-09-13T22:58:48.493Z,99.90
2018-09-13T23:01:17.570Z,99.90
2018-09-13T23:03:46.642Z,99.90
2018-09-13T23:06:15.754Z,99.90
2018-09-13T23:08:44.799Z,99.90
2018-09-13T23:11:13.869Z,99.90
2018-09-13T23:13:42.919Z,99.90
2018-09-13T23:16:12.067Z,99.90
2018-09-13T23:18:41.130Z,99.90
2018-09-13T23:21:10.230Z,99.90
2018-09-13T23:23:39.269Z,99.90
2018-09-13T23:26:08.309Z,99.90
2018-09-13T23:28:37.402Z,99.90
2018-09-13T23:31:06.530Z,99.90
2018-09-13T23:33:36.362Z,99.90
2018-09-13T23:36:05.445Z,99.90
2018-09-13T23:38:34.570Z,99.90
2018-09-13T23:41:03.652Z,99.90
2018-09-13T23:43:32.734Z,99.90
2018-09-13T23:46:01.878Z,99.90
2018-09-13T23:48:30.994Z,99.90
2018-09-13T23:51:00.158Z,99.90
2018-09-13T23:53:29.245Z,99.90
2018-09-13T23:55:58.351Z,99.90
2018-09-13T23:58:27.454Z,99.90
